createdAt,value
2022-10-16T00:00:14.550Z,84.90
2022-10-16T00:03:39.163Z,85.00
2022-10-16T00:06:13.363Z,85.00
2022-10-16T00:08:42.502Z,85.10
2022-10-16T00:11:11.449Z,85.10
2022-10-16T00:17:19.075Z,85.20
2022-10-16T00:22:27.126Z,85.30
2022-10-16T00:24:54.439Z,85.30
2022-10-16T00:27:21.494Z,85.30
2022-10-16T00:29:52.398Z,85.40
2022-10-16T00:32:22.455Z,85.40
2022-10-16T00:34:49.487Z,85.40
2022-10-16T00:37:16.448Z,85.50
2022-10-16T00:39:43.387Z,85.50
2022-10-16T00:42:21.545Z,85.40
2022-10-16T00:44:55.230Z,85.50
2022-10-16T00:47:43.819Z,85.50
2022-10-16T00:50:18.433Z,85.50
2022-10-16T00:52:47.531Z,85.40
2022-10-16T00:55:17.203Z,85.40
2022-10-16T00:57:44.172Z,85.30
2022-10-16T01:00:16.036Z,85.40
2022-10-16T01:02:43.234Z,85.40
2022-10-16T01:05:10.512Z,85.30
2022-10-16T01:08:06.922Z,85.30
2022-10-16T01:10:39.601Z,85.30
2022-10-16T01:13:19.759Z,85.20
2022-10-16T01:16:10.523Z,85.20
2022-10-16T01:18:49.245Z,85.20
2022-10-16T01:21:40.406Z,85.10
2022-10-16T01:24:33.918Z,85.20
2022-10-16T01:27:22.036Z,85.10
2022-10-16T01:30:00.481Z,85.20
2022-10-16T01:32:39.235Z,85.10
2022-10-16T01:35:16.447Z,85.20
2022-10-16T01:38:12.032Z,85.20
2022-10-16T01:40:40.633Z,85.20
2022-10-16T01:43:19.141Z,85.20
2022-10-16T01:45:46.259Z,85.30
2022-10-16T01:48:20.505Z,85.30
2022-10-16T01:50:53.703Z,85.40
2022-10-16T01:53:20.866Z,85.40
2022-10-16T01:55:48.110Z,85.50
2022-10-16T01:58:15.558Z,85.40
2022-10-16T02:00:44.719Z,85.40
2022-10-16T02:03:12.471Z,85.40
2022-10-16T02:05:58.343Z,85.40
2022-10-16T02:15:43.749Z,85.40
2022-10-16T02:18:10.835Z,85.40
2022-10-16T02:20:49.706Z,85.50
2022-10-16T02:23:20.559Z,85.60
2022-10-16T02:25:50.514Z,85.60
2022-10-16T02:28:42.287Z,85.80
2022-10-16T02:31:12.750Z,86.00
2022-10-16T02:33:40.671Z,86.00
2022-10-16T02:36:07.733Z,86.10
2022-10-16T02:38:47.928Z,86.20
2022-10-16T02:41:34.881Z,86.20
2022-10-16T02:44:02.028Z,86.30
2022-10-16T02:46:29.027Z,86.40
2022-10-16T02:48:56.026Z,86.40
2022-10-16T02:51:23.284Z,86.60
2022-10-16T02:53:50.453Z,86.60
2022-10-16T02:58:44.413Z,86.60
2022-10-16T03:01:18.482Z,86.70
2022-10-16T03:03:56.062Z,86.80
2022-10-16T03:06:23.062Z,86.80
2022-10-16T03:09:09.109Z,86.80
2022-10-16T03:11:36.096Z,86.90
2022-10-16T03:14:03.303Z,86.90
2022-10-16T03:16:30.502Z,86.90
2022-10-16T03:18:57.495Z,86.90
2022-10-16T03:21:24.548Z,86.90
2022-10-16T03:23:51.695Z,86.80
2022-10-16T03:26:18.841Z,86.80
2022-10-16T03:29:08.214Z,86.80
2022-10-16T03:31:33.885Z,86.80
2022-10-16T03:34:00.829Z,86.80
2022-10-16T03:36:27.827Z,86.80
2022-10-16T03:39:03.218Z,86.70
2022-10-16T03:41:30.474Z,86.70
2022-10-16T03:43:57.478Z,86.60
2022-10-16T03:46:24.428Z,86.60
2022-10-16T03:48:51.407Z,86.50
2022-10-16T03:51:18.559Z,86.50
2022-10-16T03:53:49.538Z,86.40
2022-10-16T03:56:16.544Z,86.40
2022-10-16T03:58:43.514Z,86.40
2022-10-16T04:01:10.434Z,86.30
2022-10-16T04:03:37.428Z,86.30
2022-10-16T04:06:04.624Z,86.30
2022-10-16T04:08:31.738Z,86.30
2022-10-16T04:10:58.773Z,86.30
2022-10-16T04:13:25.792Z,86.30
2022-10-16T04:15:52.775Z,86.20
2022-10-16T04:18:19.717Z,86.30
2022-10-16T04:20:46.632Z,86.30
2022-10-16T04:23:13.597Z,86.30
2022-10-16T04:25:40.741Z,86.20
2022-10-16T04:28:07.720Z,86.20
2022-10-16T04:30:53.561Z,86.20
2022-10-16T04:33:20.526Z,86.20
2022-10-16T04:35:47.695Z,86.20
2022-10-16T04:38:14.702Z,86.20
2022-10-16T04:40:43.492Z,86.20
2022-10-16T04:43:10.462Z,86.20
2022-10-16T04:45:37.410Z,86.20
2022-10-16T04:48:04.398Z,86.30
2022-10-16T04:50:31.499Z,86.30
2022-10-16T04:52:58.386Z,86.30
2022-10-16T04:55:25.503Z,86.40
2022-10-16T04:57:52.742Z,86.30
2022-10-16T05:00:19.896Z,86.30
2022-10-16T05:02:49.829Z,86.40
2022-10-16T05:05:16.860Z,86.40
2022-10-16T05:07:43.734Z,86.30
2022-10-16T05:10:13.304Z,86.30
2022-10-16T05:12:40.325Z,86.20
2022-10-16T05:15:10.686Z,86.20
2022-10-16T05:17:41.176Z,86.10
2022-10-16T05:20:11.115Z,86.10
2022-10-16T05:22:38.081Z,86.10
2022-10-16T05:25:05.568Z,86.00
2022-10-16T05:27:32.517Z,86.00
2022-10-16T05:29:59.493Z,85.90
2022-10-16T05:32:26.556Z,85.90
2022-10-16T05:34:53.553Z,85.90
2022-10-16T05:37:20.502Z,85.90
2022-10-16T05:39:50.561Z,85.90
2022-10-16T05:42:19.916Z,85.90
2022-10-16T05:44:51.632Z,85.90
2022-10-16T05:47:18.611Z,85.80
2022-10-16T05:49:45.553Z,85.80
2022-10-16T05:52:12.603Z,85.80
2022-10-16T05:54:39.717Z,85.80
2022-10-16T05:57:06.942Z,85.80
2022-10-16T05:59:33.990Z,85.80
2022-10-16T06:02:00.935Z,85.80
2022-10-16T06:04:28.115Z,85.80
2022-10-16T06:06:55.118Z,85.80
2022-10-16T06:09:22.051Z,85.80
2022-10-16T06:11:50.243Z,85.80
2022-10-16T06:14:17.194Z,85.90
2022-10-16T06:16:44.160Z,85.90
2022-10-16T06:19:11.249Z,85.90
2022-10-16T06:21:40.511Z,85.90
2022-10-16T06:24:07.954Z,85.90
2022-10-16T06:26:34.958Z,86.00
2022-10-16T06:29:02.157Z,86.00
2022-10-16T06:31:34.574Z,85.90
2022-10-16T06:34:01.854Z,86.00
2022-10-16T06:36:28.925Z,85.90
2022-10-16T06:38:55.964Z,85.90
2022-10-16T06:41:23.467Z,86.00
2022-10-16T06:43:50.565Z,86.00
2022-10-16T06:46:19.150Z,86.00
2022-10-16T06:48:46.599Z,86.50
2022-10-16T06:51:20.062Z,86.00
2022-10-16T06:54:05.669Z,85.90
2022-10-16T06:56:33.114Z,85.90
2022-10-16T06:59:00.411Z,85.90
2022-10-16T07:01:28.490Z,85.90
2022-10-16T07:03:55.622Z,85.80
2022-10-16T07:06:23.866Z,85.80
2022-10-16T07:08:51.022Z,85.80
2022-10-16T07:12:15.246Z,85.70
2022-10-16T07:14:42.151Z,85.70
2022-10-16T07:17:09.225Z,85.60
2022-10-16T07:19:36.287Z,85.60
2022-10-16T07:22:09.294Z,85.50
2022-10-16T07:24:36.383Z,85.50
2022-10-16T07:27:03.365Z,85.50
2022-10-16T07:29:30.497Z,85.40
2022-10-16T07:35:52.772Z,85.30
2022-10-16T07:38:19.997Z,85.20
2022-10-16T07:40:49.395Z,85.10
2022-10-16T07:43:18.802Z,85.10
2022-10-16T07:45:50.353Z,85.00
2022-10-16T07:48:18.005Z,84.90
2022-10-16T07:50:48.497Z,84.80
2022-10-16T07:53:26.287Z,84.70
2022-10-16T07:55:57.771Z,84.70
2022-10-16T07:58:24.774Z,84.60
2022-10-16T08:00:56.437Z,84.50
2022-10-16T08:03:26.015Z,84.50
2022-10-16T08:05:55.971Z,84.40
2022-10-16T08:08:22.936Z,84.30
2022-10-16T08:10:49.883Z,84.30
2022-10-16T08:13:26.187Z,84.30
2022-10-16T08:16:26.009Z,84.30
2022-10-16T08:18:53.324Z,84.30
2022-10-16T08:21:22.426Z,84.30
2022-10-16T08:23:54.529Z,84.40
2022-10-16T08:26:27.931Z,84.40
2022-10-16T08:28:55.901Z,84.50
2022-10-16T08:31:23.422Z,84.60
2022-10-16T08:33:52.661Z,84.60
2022-10-16T08:36:47.334Z,84.60
2022-10-16T08:39:17.844Z,84.70
2022-10-16T08:41:48.081Z,84.70
2022-10-16T08:44:30.160Z,84.90
2022-10-16T08:47:10.187Z,84.80
2022-10-16T08:49:37.392Z,84.80
2022-10-16T08:52:06.993Z,84.80
2022-10-16T08:54:41.909Z,84.60
2022-10-16T08:57:23.209Z,84.50
2022-10-16T08:59:56.010Z,84.40
2022-10-16T09:03:03.451Z,84.20
2022-10-16T09:06:04.196Z,84.00
2022-10-16T09:08:58.578Z,83.80
2022-10-16T09:12:09.396Z,83.60
2022-10-16T09:15:06.400Z,83.50
2022-10-16T09:17:36.388Z,83.30
2022-10-16T09:20:19.321Z,83.20
2022-10-16T09:22:49.780Z,83.00
2022-10-16T09:25:22.344Z,82.90
2022-10-16T09:27:53.599Z,82.90
2022-10-16T09:30:21.239Z,83.30
2022-10-16T09:32:49.929Z,82.60
2022-10-16T09:35:22.075Z,82.50
2022-10-16T09:37:51.104Z,82.30
2022-10-16T09:40:29.608Z,82.10
2022-10-16T09:43:17.765Z,82.00
2022-10-16T09:45:44.687Z,81.80
2022-10-16T09:48:12.661Z,81.70
2022-10-16T09:50:39.808Z,81.50
2022-10-16T09:53:16.229Z,81.40
2022-10-16T09:55:51.164Z,81.20
2022-10-16T09:58:18.107Z,81.10
2022-10-16T10:00:53.632Z,81.00
2022-10-16T10:03:39.225Z,80.90
2022-10-16T10:06:27.577Z,80.80
2022-10-16T10:09:03.089Z,80.70
2022-10-16T10:11:42.150Z,80.70
2022-10-16T10:14:20.151Z,80.50
2022-10-16T10:16:50.838Z,80.40
2022-10-16T10:19:26.135Z,80.30
2022-10-16T10:21:57.216Z,80.10
2022-10-16T10:24:24.232Z,80.00
2022-10-16T10:27:20.744Z,79.90
2022-10-16T10:30:11.049Z,79.60
2022-10-16T10:33:07.229Z,79.50
2022-10-16T10:35:41.278Z,79.40
2022-10-16T10:38:38.432Z,79.30
2022-10-16T10:41:17.051Z,79.10
2022-10-16T10:43:54.030Z,79.00
2022-10-16T10:46:36.148Z,78.90
2022-10-16T10:49:15.382Z,78.80
2022-10-16T10:51:48.336Z,78.60
2022-10-16T10:54:23.600Z,78.40
2022-10-16T10:57:03.245Z,78.30
2022-10-16T10:59:42.443Z,78.10
2022-10-16T11:02:12.365Z,77.80
2022-10-16T11:04:55.056Z,77.60
2022-10-16T11:07:31.401Z,77.30
2022-10-16T11:10:25.796Z,77.10
2022-10-16T11:12:54.244Z,76.90
2022-10-16T11:15:27.064Z,76.90
2022-10-16T11:18:14.497Z,76.80
2022-10-16T11:21:01.817Z,76.60
2022-10-16T11:23:31.237Z,76.50
2022-10-16T11:26:00.866Z,76.30
2022-10-16T11:28:58.293Z,76.20
2022-10-16T11:31:48.469Z,75.90
2022-10-16T11:34:27.627Z,75.70
2022-10-16T11:37:15.013Z,75.70
2022-10-16T11:39:43.439Z,75.50
2022-10-16T11:42:19.808Z,75.40
2022-10-16T11:44:53.226Z,75.30
2022-10-16T11:48:02.010Z,75.30
2022-10-16T11:50:47.670Z,75.20
2022-10-16T11:53:15.905Z,75.10
2022-10-16T11:55:54.283Z,75.10
2022-10-16T11:58:27.668Z,75.10
2022-10-16T12:01:12.492Z,75.00
2022-10-16T12:04:03.534Z,75.00
2022-10-16T12:07:00.722Z,74.90
2022-10-16T12:09:28.332Z,74.80
2022-10-16T12:12:36.851Z,74.70
2022-10-16T12:15:47.003Z,74.50
2022-10-16T12:18:24.345Z,74.50
2022-10-16T12:21:20.152Z,74.30
2022-10-16T12:23:54.453Z,74.20
2022-10-16T12:26:35.040Z,74.20
2022-10-16T12:29:20.207Z,74.10
2022-10-16T12:32:48.474Z,73.90
2022-10-16T12:35:35.382Z,73.90
2022-10-16T12:38:29.677Z,73.90
2022-10-16T12:41:03.973Z,73.90
2022-10-16T12:43:43.860Z,74.00
2022-10-16T12:46:10.942Z,74.10
2022-10-16T12:48:49.358Z,74.10
2022-10-16T12:51:29.269Z,74.20
2022-10-16T12:54:22.809Z,74.20
2022-10-16T12:57:06.272Z,74.20
2022-10-16T12:59:40.103Z,74.20
2022-10-16T13:02:06.986Z,74.30
2022-10-16T13:04:45.270Z,74.40
2022-10-16T13:07:30.716Z,74.40
2022-10-16T13:10:20.565Z,74.40
2022-10-16T13:13:08.041Z,74.50
2022-10-16T13:15:43.042Z,74.50
2022-10-16T13:18:26.397Z,74.60
2022-10-16T13:21:14.332Z,74.60
2022-10-16T13:23:56.612Z,74.60
2022-10-16T13:26:32.964Z,74.60
2022-10-16T13:29:02.009Z,74.60
2022-10-16T13:31:29.303Z,74.70
2022-10-16T13:33:58.493Z,74.80
2022-10-16T13:36:29.071Z,74.80
2022-10-16T13:39:11.939Z,74.90
2022-10-16T13:41:39.085Z,74.90
2022-10-16T13:44:06.574Z,75.00
2022-10-16T13:46:35.651Z,75.10
2022-10-16T13:49:03.505Z,75.10
2022-10-16T13:51:31.498Z,75.00
2022-10-16T13:53:58.657Z,75.00
2022-10-16T13:56:33.153Z,75.00
2022-10-16T13:59:04.311Z,75.00
2022-10-16T14:01:34.995Z,75.10
2022-10-16T14:04:06.781Z,75.00
2022-10-16T14:06:33.926Z,75.00
2022-10-16T14:09:03.318Z,75.00
2022-10-16T14:11:32.851Z,75.00
2022-10-16T14:14:00.099Z,75.10
2022-10-16T14:16:28.479Z,75.10
2022-10-16T14:19:07.732Z,75.10
2022-10-16T14:21:35.325Z,75.10
2022-10-16T14:24:14.941Z,75.20
2022-10-16T14:29:27.529Z,75.30
2022-10-16T14:32:02.217Z,75.30
2022-10-16T14:38:00.408Z,75.40
2022-10-16T14:40:35.117Z,75.50
2022-10-16T14:43:05.508Z,75.60
2022-10-16T14:45:35.295Z,75.70
2022-10-16T14:48:07.163Z,75.70
2022-10-16T14:50:34.162Z,75.80
2022-10-16T14:53:01.344Z,75.80
2022-10-16T14:55:30.708Z,75.80
2022-10-16T14:58:04.926Z,75.90
2022-10-16T15:03:16.013Z,76.00
2022-10-16T15:05:43.133Z,76.10
2022-10-16T15:08:10.182Z,76.10
2022-10-16T15:11:18.841Z,76.20
2022-10-16T15:13:48.774Z,76.30
2022-10-16T15:16:17.044Z,76.40
2022-10-16T15:19:23.323Z,76.40
2022-10-16T15:25:50.859Z,76.70
2022-10-16T15:28:48.254Z,76.80
2022-10-16T15:31:15.387Z,76.90
2022-10-16T15:33:43.538Z,77.10
2022-10-16T15:44:20.762Z,77.30
2022-10-16T15:54:57.160Z,77.60
2022-10-16T16:17:14.168Z,78.30
2022-10-16T16:23:17.930Z,78.60
2022-10-16T16:25:45.158Z,78.70
2022-10-16T16:55:12.601Z,79.70
2022-10-16T16:58:13.653Z,79.80
2022-10-16T17:05:41.398Z,80.20
2022-10-16T17:08:28.381Z,80.20
2022-10-16T17:10:56.550Z,80.40
2022-10-16T17:13:24.553Z,80.40
2022-10-16T17:16:03.403Z,80.50
2022-10-16T17:20:19.287Z,80.70
2022-10-16T17:25:27.518Z,81.10
2022-10-16T17:27:55.383Z,81.10
2022-10-16T17:30:43.415Z,81.30
2022-10-16T17:33:12.941Z,81.60
2022-10-16T17:36:19.369Z,81.70
2022-10-16T17:41:32.255Z,82.00
2022-10-16T17:44:01.735Z,82.20
2022-10-16T17:46:28.959Z,82.50
2022-10-16T17:49:38.121Z,82.60
2022-10-16T17:52:07.441Z,82.80
2022-10-16T17:54:34.570Z,82.80
2022-10-16T17:57:05.784Z,83.00
2022-10-16T17:59:33.870Z,83.10
2022-10-16T18:02:00.940Z,83.20
2022-10-16T18:04:30.027Z,83.30
2022-10-16T18:06:57.046Z,83.50
2022-10-16T18:10:10.754Z,83.50
2022-10-16T18:12:30.669Z,84.10
2022-10-16T18:19:02.980Z,83.90
2022-10-16T18:21:33.052Z,84.00
2022-10-16T18:24:01.688Z,84.50
2022-10-16T18:26:31.107Z,84.10
2022-10-16T18:28:58.497Z,84.20
2022-10-16T18:31:26.725Z,84.30
2022-10-16T18:33:54.164Z,84.40
2022-10-16T18:36:45.946Z,84.60
2022-10-16T18:39:13.299Z,84.60
2022-10-16T18:41:44.776Z,84.70
2022-10-16T18:44:11.944Z,84.80
2022-10-16T18:46:38.961Z,85.40
2022-10-16T18:53:15.579Z,85.00
2022-10-16T18:56:40.155Z,85.00
2022-10-16T18:59:08.986Z,85.10
2022-10-16T19:01:54.851Z,85.00
2022-10-16T19:07:23.622Z,85.30
2022-10-16T19:09:50.775Z,85.30
2022-10-16T19:12:24.400Z,85.40
2022-10-16T19:15:03.385Z,85.50
2022-10-16T19:17:57.101Z,86.20
2022-10-16T19:20:43.000Z,85.50
2022-10-16T19:24:14.004Z,85.70
2022-10-16T19:26:43.498Z,85.80
2022-10-16T19:29:13.591Z,85.80
2022-10-16T19:31:43.790Z,85.80
2022-10-16T19:34:11.039Z,85.90
2022-10-16T19:36:39.856Z,86.00
2022-10-16T19:39:14.458Z,86.10
2022-10-16T19:41:44.128Z,86.20
2022-10-16T19:45:16.763Z,86.30
2022-10-16T19:51:13.313Z,86.40
2022-10-16T19:53:58.220Z,86.40
2022-10-16T19:57:15.597Z,86.40
2022-10-16T20:02:56.454Z,86.60
2022-10-16T20:05:28.684Z,86.60
2022-10-16T20:11:35.879Z,86.80
2022-10-16T20:14:03.469Z,86.70
2022-10-16T20:17:01.773Z,86.70
2022-10-16T20:20:02.467Z,86.80
2022-10-16T20:26:29.776Z,86.90
2022-10-16T20:29:05.443Z,86.90
2022-10-16T20:31:44.811Z,86.90
2022-10-16T20:34:12.412Z,86.90
2022-10-16T20:36:43.632Z,87.00
2022-10-16T20:45:32.411Z,87.20
2022-10-16T20:48:25.932Z,87.30
2022-10-16T20:57:40.220Z,87.20
2022-10-16T21:00:34.489Z,87.30
2022-10-16T21:03:04.725Z,87.50
2022-10-16T21:05:34.644Z,87.60
2022-10-16T21:08:01.604Z,87.70
2022-10-16T21:10:29.941Z,87.90
2022-10-16T21:12:58.703Z,88.10
2022-10-16T21:16:22.168Z,88.20
2022-10-16T21:22:59.552Z,88.50
2022-10-16T21:25:53.651Z,88.40
2022-10-16T21:29:17.406Z,88.60
2022-10-16T21:56:44.765Z,89.20
2022-10-16T21:59:15.941Z,89.30
2022-10-16T22:02:40.667Z,89.40
2022-10-16T22:05:55.677Z,89.60
2022-10-16T22:08:23.592Z,89.50
2022-10-16T22:14:41.478Z,89.40
2022-10-16T22:17:08.448Z,89.50
2022-10-16T22:19:39.265Z,89.60
2022-10-16T22:22:25.294Z,89.70
2022-10-16T22:25:12.343Z,89.90
2022-10-16T22:27:39.294Z,90.00
2022-10-16T22:30:06.900Z,90.00
2022-10-16T22:35:38.220Z,90.10
2022-10-16T22:39:03.638Z,90.20
2022-10-16T22:42:27.104Z,90.30
2022-10-16T22:44:56.423Z,90.30
2022-10-16T22:47:26.715Z,90.30
2022-10-16T22:53:34.735Z,90.40
2022-10-16T22:56:01.865Z,90.40
2022-10-16T22:58:31.842Z,90.50
2022-10-16T23:00:58.852Z,90.50
2022-10-16T23:03:26.059Z,90.60
2022-10-16T23:05:53.182Z,90.60
2022-10-16T23:08:22.551Z,90.90
2022-10-16T23:10:52.484Z,90.70
2022-10-16T23:13:22.464Z,90.70
2022-10-16T23:15:49.411Z,90.80
2022-10-16T23:18:16.680Z,90.80
2022-10-16T23:20:59.007Z,90.80
2022-10-16T23:23:26.071Z,90.90
2022-10-16T23:25:53.052Z,90.90
2022-10-16T23:28:23.174Z,90.90
2022-10-16T23:30:51.200Z,90.90
2022-10-16T23:33:32.026Z,90.90
2022-10-16T23:36:00.193Z,91.00
2022-10-16T23:41:15.686Z,91.00
2022-10-16T23:43:42.754Z,91.00
2022-10-16T23:46:11.560Z,91.10
2022-10-16T23:48:39.074Z,91.10
2022-10-16T23:51:26.009Z,91.10
2022-10-16T23:53:52.981Z,91.10
2022-10-16T23:56:20.416Z,91.10
2022-10-16T23:58:47.677Z,91.10
